Time;durP1;ratioP1;P1;durP2;ratioP2;P2;SDS_P1;SDS_P2;PMS_P1;PMS_P2;Temp;Humidity;BMP_temperature;BMP_pressure;BME280_temperature;BME280_humidity;BME280_pressure;Samples;Min_cycle;Max_cycle;Signal;HPM_P1;HPM_P2
2022/03/16 00:03:38;;;;;;;40.52;28.30;;;;;;;9.92;76.99;100650.32;2635694;90;21328;-67
2022/03/16 00:07:39;;;;;;;44.35;27.40;;;;;;;9.98;76.41;100660.52;2635357;90;21619;-70
2022/03/16 00:11:41;;;;;;;46.65;30.65;;;;;;;10.07;76.05;100660.33;2592564;90;21109;-70
2022/03/16 00:15:43;;;;;;;47.85;33.38;;;;;;;10.11;75.88;100666.23;2635511;90;21064;-69
2022/03/16 00:19:44;;;;;;;54.70;37.15;;;;;;;10.08;76.23;100666.01;2635205;89;21038;-69
2022/03/16 00:23:46;;;;;;;58.78;38.63;;;;;;;10.05;77.12;100666.70;2592838;92;21068;-68
2022/03/16 00:27:47;;;;;;;55.80;36.90;;;;;;;9.99;78.32;100669.33;2635769;90;21087;-69
2022/03/16 00:31:49;;;;;;;63.63;40.10;;;;;;;9.87;79.30;100665.77;2635403;90;21045;-67
2022/03/16 00:35:50;;;;;;;56.63;36.95;;;;;;;9.82;80.38;100667.91;2592496;92;21080;-68
2022/03/16 00:39:52;;;;;;;57.00;37.65;;;;;;;9.68;82.25;100672.91;2635475;90;21064;-68
2022/03/16 00:43:53;;;;;;;66.67;39.63;;;;;;;9.48;83.41;100665.89;2634757;89;21062;-68
2022/03/16 00:47:55;;;;;;;58.73;37.65;;;;;;;9.28;85.19;100668.15;2596903;90;21084;-71
2022/03/16 00:51:58;;;;;;;56.28;40.67;;;;;;;9.12;86.24;100660.39;2609926;91;21101;-72
2022/03/16 00:55:59;;;;;;;65.45;38.83;;;;;;;8.97;87.71;100658.33;2609761;91;21084;-71
2022/03/16 01:00:01;;;;;;;59.23;39.10;;;;;;;8.91;88.15;100654.78;2567641;92;21092;-72
2022/03/16 01:04:04;;;;;;;65.83;35.85;;;;;;;8.84;88.83;100654.36;2609902;91;21068;-72
2022/03/16 01:08:05;;;;;;;61.73;39.90;;;;;;;8.78;89.32;100659.23;2567404;92;21045;-71
2022/03/16 01:12:08;;;;;;;54.88;36.83;;;;;;;8.73;89.92;100650.25;2609842;91;21120;-72
2022/03/16 01:16:11;;;;;;;54.48;35.33;;;;;;;8.75;89.68;100644.39;2598282;91;21072;-73
2022/03/16 01:20:12;;;;;;;46.08;33.58;;;;;;;8.73;90.51;100648.92;2609669;90;21009;-71
2022/03/16 01:24:14;;;;;;;53.08;37.00;;;;;;;8.74;90.78;100652.44;2609896;91;21136;-72
2022/03/16 01:28:15;;;;;;;59.03;35.33;;;;;;;8.70;91.40;100651.33;2597981;90;21595;-72
2022/03/16 01:32:17;;;;;;;53.05;34.18;;;;;;;8.68;91.71;100651.05;2609387;91;21056;-74
2022/03/16 01:36:18;;;;;;;66.22;37.33;;;;;;;8.67;92.02;100666.12;2609282;91;21088;-73
2022/03/16 01:40:20;;;;;;;46.73;34.50;;;;;;;8.65;92.33;100660.55;2567166;91;21116;-72
2022/03/16 01:44:47;;;;;;;55.88;39.13;;;;;;;8.63;92.70;100667.27;2609568;91;21036;-73
2022/03/16 01:48:51;;;;;;;59.75;38.90;;;;;;;8.62;92.87;100667.39;2613775;90;21461;-72
2022/03/16 01:52:53;;;;;;;49.05;33.13;;;;;;;8.62;93.10;100670.05;2604866;91;21037;-73
2022/03/16 01:56:55;;;;;;;50.20;36.25;;;;;;;8.60;93.54;100675.44;2604918;91;21074;-72
2022/03/16 02:00:56;;;;;;;56.45;36.40;;;;;;;8.56;93.65;100680.58;2604735;90;21105;-71
2022/03/16 02:04:58;;;;;;;47.17;34.50;;;;;;;8.60;93.54;100681.23;2604591;91;21605;-72
2022/03/16 02:08:59;;;;;;;51.60;36.85;;;;;;;8.55;93.79;100684.19;2604727;91;21073;-74
2022/03/16 02:13:02;;;;;;;50.58;32.90;;;;;;;8.53;93.68;100694.05;2603917;91;21366;-74
2022/03/16 02:17:04;;;;;;;62.88;39.30;;;;;;;8.54;93.80;100693.09;2603182;91;21141;-79
2022/03/16 02:21:07;;;;;;;52.55;37.55;;;;;;;8.49;93.70;100691.20;2603287;91;21129;-75
2022/03/16 02:25:09;;;;;;;54.00;38.42;;;;;;;8.51;93.84;100697.28;2603140;91;21096;-77
2022/03/16 02:29:10;;;;;;;54.90;36.95;;;;;;;8.47;93.87;100709.84;2602302;91;21065;-77
2022/03/16 02:33:12;;;;;;;58.73;37.10;;;;;;;8.47;93.85;100719.63;2602773;91;21073;-75
2022/03/16 02:37:13;;;;;;;63.92;38.23;;;;;;;8.41;94.21;100714.23;2603997;91;21439;-72
2022/03/16 02:41:15;;;;;;;53.28;34.95;;;;;;;8.37;94.41;100724.68;2603784;91;21121;-74
2022/03/16 02:45:17;;;;;;;49.42;34.43;;;;;;;8.32;94.53;100736.90;2603932;91;21089;-74
2022/03/16 02:49:18;;;;;;;59.00;37.00;;;;;;;8.29;94.65;100740.59;2608367;90;21124;-73
2022/03/16 02:53:20;;;;;;;57.62;40.00;;;;;;;8.31;94.94;100740.50;2608567;91;21057;-73
2022/03/16 02:57:21;;;;;;;58.60;41.68;;;;;;;8.27;95.15;100756.23;2582970;92;21097;-71
2022/03/16 03:01:23;;;;;;;56.90;39.05;;;;;;;8.28;94.79;100759.26;2608259;91;21104;-71
2022/03/16 03:05:25;;;;;;;58.02;38.05;;;;;;;8.26;95.12;100769.95;2581371;91;21077;-70
2022/03/16 03:09:27;;;;;;;48.42;34.50;;;;;;;8.23;95.20;100777.23;2637380;89;21619;-70
2022/03/16 03:13:29;;;;;;;61.53;39.60;;;;;;;8.26;95.65;100788.99;2583767;90;21100;-68
2022/03/16 03:17:31;;;;;;;50.75;37.42;;;;;;;8.31;95.30;100795.30;2626524;90;21113;-68
2022/03/16 03:21:33;;;;;;;52.80;37.67;;;;;;;8.26;95.86;100801.75;2583701;92;20998;-68
2022/03/16 03:25:35;;;;;;;59.45;37.00;;;;;;;8.27;96.32;100809.25;2626469;90;21550;-69
2022/03/16 03:29:36;;;;;;;52.00;34.80;;;;;;;8.25;96.63;100817.28;2609163;91;21073;-68
2022/03/16 03:33:38;;;;;;;52.85;37.17;;;;;;;8.28;96.72;100813.59;2583558;92;21076;-68
2022/03/16 03:37:39;;;;;;;43.38;32.13;;;;;;;8.29;96.76;100825.41;2626556;90;21092;-68
2022/03/16 03:41:42;;;;;;;45.40;33.33;;;;;;;8.37;96.59;100828.89;2609059;91;21109;-67
2022/03/16 03:45:43;;;;;;;47.15;36.38;;;;;;;8.37;96.97;100823.59;2585685;91;21094;-68
2022/03/16 03:49:45;;;;;;;58.05;37.03;;;;;;;8.40;96.40;100827.86;2668548;89;21544;-68
2022/03/16 03:53:47;;;;;;;47.83;35.28;;;;;;;8.45;96.86;100832.39;2599907;90;21114;-68
2022/03/16 03:57:49;;;;;;;51.42;35.92;;;;;;;8.53;97.12;100833.25;2561140;93;21122;-68
2022/03/16 04:01:50;;;;;;;61.70;38.55;;;;;;;8.61;96.76;100838.90;2564557;90;21676;-67
2022/03/16 04:05:52;;;;;;;51.98;36.83;;;;;;;8.67;97.02;100841.63;2627395;90;21073;-68
2022/03/16 04:09:54;;;;;;;52.62;38.73;;;;;;;8.74;97.55;100851.38;2604684;90;21075;-69
2022/03/16 04:13:55;;;;;;;48.73;35.30;;;;;;;8.81;97.76;100851.34;2605935;90;21093;-70
2022/03/16 04:17:57;;;;;;;48.15;33.48;;;;;;;8.76;95.57;100860.94;2599414;90;21057;-69
2022/03/16 04:21:58;;;;;;;45.83;32.98;;;;;;;8.60;94.85;100863.72;2580617;91;21069;-67
2022/03/16 04:26:00;;;;;;;47.60;35.13;;;;;;;8.39;95.52;100867.25;2615670;90;21026;-69
2022/03/16 04:30:01;;;;;;;56.63;41.75;;;;;;;8.21;96.57;100871.44;2642357;90;21030;-69
2022/03/16 04:34:03;;;;;;;63.17;47.90;;;;;;;8.12;97.03;100870.21;2642268;90;21110;-69
2022/03/16 04:38:04;;;;;;;56.70;43.23;;;;;;;8.15;97.89;100881.08;2642450;90;21066;-70
2022/03/16 04:42:07;;;;;;;61.48;43.42;;;;;;;8.15;97.78;100882.40;2642121;90;21066;-70
2022/03/16 04:46:08;;;;;;;60.92;41.10;;;;;;;8.14;97.81;100886.86;2641990;90;21034;-70
2022/03/16 04:50:10;;;;;;;59.58;38.30;;;;;;;8.13;98.32;100890.46;2636689;90;21614;-70
2022/03/16 04:54:14;;;;;;;60.58;39.08;;;;;;;8.22;99.31;100901.42;2636668;90;21078;-70
2022/03/16 04:58:15;;;;;;;49.25;35.83;;;;;;;8.28;99.12;100902.39;2636296;90;21078;-70
2022/03/16 05:02:17;;;;;;;54.00;37.93;;;;;;;8.35;97.95;100914.30;2636538;90;21106;-71
2022/03/16 05:06:18;;;;;;;51.70;36.05;;;;;;;8.42;97.74;100920.91;2636355;90;21157;-71
2022/03/16 05:10:20;;;;;;;45.98;34.73;;;;;;;8.39;96.66;100933.04;2636480;90;21096;-71
2022/03/16 05:14:21;;;;;;;49.05;37.50;;;;;;;8.36;96.72;100937.70;2635461;90;21082;-74
2022/03/16 05:18:23;;;;;;;50.78;38.38;;;;;;;8.31;96.79;100949.91;2634750;90;21520;-76
2022/03/16 05:22:25;;;;;;;57.58;39.60;;;;;;;8.44;98.94;100957.95;2634188;90;21090;-75
2022/03/16 05:26:26;;;;;;;54.08;37.78;;;;;;;8.58;99.45;100961.09;2634032;89;21043;-75
2022/03/16 05:30:28;;;;;;;50.05;36.45;;;;;;;8.68;98.92;100969.31;2636368;90;21019;-72
2022/03/16 05:34:30;;;;;;;47.43;37.63;;;;;;;8.66;97.93;100980.50;2636271;90;21090;-72
2022/03/16 05:38:31;;;;;;;50.78;39.35;;;;;;;8.53;96.29;100979.09;2636368;90;21078;-71
2022/03/16 05:42:33;;;;;;;52.38;35.92;;;;;;;8.38;96.44;100988.83;2635456;90;21079;-72
2022/03/16 05:46:35;;;;;;;58.28;39.13;;;;;;;8.23;96.80;100993.24;2555011;92;21061;-73
2022/03/16 05:50:38;;;;;;;57.25;38.70;;;;;;;8.00;98.04;100999.45;2535144;94;21602;-73
2022/03/16 05:54:39;;;;;;;56.45;39.42;;;;;;;7.94;99.07;100997.19;2575913;92;21133;-73
2022/03/16 05:58:41;;;;;;;52.62;38.67;;;;;;;7.98;100.00;101007.97;2565161;93;21124;-72
2022/03/16 06:02:44;;;;;;;53.25;39.85;;;;;;;7.96;100.00;101016.48;2565489;93;21065;-73
2022/03/16 06:06:46;;;;;;;65.35;46.37;;;;;;;7.91;100.00;101030.48;2564951;91;21096;-73
2022/03/16 06:10:48;;;;;;;56.08;39.25;;;;;;;7.67;100.00;101034.95;2564972;93;21134;-74
2022/03/16 06:14:49;;;;;;;58.20;39.45;;;;;;;7.69;100.00;101044.98;2565028;93;21149;-74
2022/03/16 06:18:51;;;;;;;56.75;40.25;;;;;;;7.72;100.00;101044.80;2565096;93;21053;-74
2022/03/16 06:22:52;;;;;;;52.55;41.13;;;;;;;7.74;100.00;101048.21;2565135;93;21685;-75
2022/03/16 06:26:54;;;;;;;53.30;40.30;;;;;;;7.79;100.00;101048.79;2564946;91;21129;-75
2022/03/16 06:30:56;;;;;;;56.53;43.17;;;;;;;7.74;100.00;101057.48;2564936;93;21602;-76
2022/03/16 06:34:57;;;;;;;63.98;41.42;;;;;;;7.84;100.00;101060.45;2564994;93;21093;-76
2022/03/16 06:38:59;;;;;;;56.45;40.50;;;;;;;8.00;100.00;101072.32;2565013;93;21129;-76
2022/03/16 06:43:00;;;;;;;53.02;41.48;;;;;;;8.10;100.00;101071.31;2564936;92;21150;-75
2022/03/16 06:47:02;;;;;;;65.78;42.17;;;;;;;8.21;100.00;101078.63;2564698;93;21124;-76
2022/03/16 06:51:03;;;;;;;59.35;39.45;;;;;;;8.41;100.00;101079.61;2565191;92;21066;-77
2022/03/16 06:55:08;;;;;;;59.30;42.10;;;;;;;8.43;100.00;101083.02;2564670;93;21100;-78
2022/03/16 06:59:09;;;;;;;59.73;43.55;;;;;;;8.57;100.00;101092.84;2564827;93;21112;-75
2022/03/16 07:03:11;;;;;;;63.33;42.43;;;;;;;8.57;100.00;101093.31;2564705;93;21085;-78
2022/03/16 07:07:13;;;;;;;69.40;47.20;;;;;;;8.60;100.00;101106.86;2565161;93;21100;-78
2022/03/16 07:11:17;;;;;;;61.48;43.00;;;;;;;8.63;100.00;101117.28;2565059;92;21347;-76
2022/03/16 07:15:18;;;;;;;65.95;44.42;;;;;;;8.50;99.88;101112.70;2564795;93;21112;-76
2022/03/16 07:19:20;;;;;;;65.67;44.45;;;;;;;8.41;100.00;101112.75;2564290;93;21085;-75
2022/03/16 07:23:21;;;;;;;63.33;41.15;;;;;;;8.44;100.00;101126.31;2563939;93;21648;-76
2022/03/16 07:27:23;;;;;;;62.60;43.30;;;;;;;8.35;100.00;101133.01;2563873;93;21716;-76
2022/03/16 07:31:25;;;;;;;67.08;44.38;;;;;;;8.42;100.00;101130.85;2563688;93;21108;-74
2022/03/16 07:35:27;;;;;;;65.72;42.48;;;;;;;8.37;100.00;101139.07;2563852;93;21097;-74
2022/03/16 07:39:28;;;;;;;63.33;42.98;;;;;;;8.37;100.00;101148.34;2563386;93;21101;-73
2022/03/16 07:43:30;;;;;;;67.87;46.33;;;;;;;8.39;100.00;101150.44;2563940;93;21126;-73
2022/03/16 07:47:32;;;;;;;67.90;46.68;;;;;;;8.43;100.00;101158.58;2564917;92;21105;-73
2022/03/16 07:51:33;;;;;;;65.90;46.28;;;;;;;8.50;100.00;101168.88;2568761;92;21069;-73
2022/03/16 07:55:35;;;;;;;61.15;47.10;;;;;;;8.55;100.00;101172.97;2568541;92;21133;-72
2022/03/16 07:59:36;;;;;;;59.63;41.20;;;;;;;8.64;100.00;101177.34;2568885;92;21080;-72
2022/03/16 08:03:37;;;;;;;65.03;43.80;;;;;;;8.68;100.00;101177.53;2568889;92;21137;-72
2022/03/16 08:07:39;;;;;;;68.65;48.23;;;;;;;8.70;99.87;101172.53;2568939;92;21072;-72
2022/03/16 08:11:41;;;;;;;65.72;46.28;;;;;;;8.71;99.17;101188.82;2569081;92;21160;-72
2022/03/16 08:15:43;;;;;;;66.67;45.95;;;;;;;8.68;97.62;101188.14;2568842;92;21137;-71
2022/03/16 08:19:46;;;;;;;62.88;45.92;;;;;;;8.77;99.20;101194.70;2569200;92;21125;-71
2022/03/16 08:23:47;;;;;;;69.45;47.58;;;;;;;8.84;99.72;101200.00;2569518;92;21080;-71
2022/03/16 08:27:49;;;;;;;72.47;46.83;;;;;;;8.83;97.99;101198.30;2569075;92;21635;-71
2022/03/16 08:31:51;;;;;;;61.65;47.05;;;;;;;8.81;97.15;101196.21;2569532;92;21100;-71
2022/03/16 08:35:54;;;;;;;68.52;48.83;;;;;;;8.79;97.38;101200.76;2569456;92;21712;-71
2022/03/16 08:39:55;;;;;;;72.60;47.33;;;;;;;8.83;97.74;101202.28;2569067;92;21125;-71
2022/03/16 08:43:57;;;;;;;65.40;45.45;;;;;;;8.92;98.14;101206.17;2569022;92;21092;-71
2022/03/16 08:47:58;;;;;;;63.10;44.70;;;;;;;8.92;97.53;101207.05;2568602;92;21081;-71
2022/03/16 08:52:01;;;;;;;67.62;47.30;;;;;;;8.95;97.60;101215.31;2565552;93;21089;-71
2022/03/16 08:56:04;;;;;;;67.00;46.83;;;;;;;8.95;96.01;101218.80;2565158;91;29434;-71
2022/03/16 09:00:07;;;;;;;69.12;47.33;;;;;;;9.05;97.54;101214.28;2565329;93;21092;-71
2022/03/16 09:04:09;;;;;;;60.10;46.08;;;;;;;9.11;97.20;101221.37;2565607;93;21100;-71
2022/03/16 09:08:11;;;;;;;68.02;46.95;;;;;;;9.21;96.73;101226.97;2565677;92;21041;-71
2022/03/16 09:12:12;;;;;;;61.98;45.63;;;;;;;9.41;97.53;101239.49;2565658;92;21080;-71
2022/03/16 09:16:15;;;;;;;60.70;43.55;;;;;;;9.44;94.67;101231.37;2565928;93;21097;-70
2022/03/16 09:20:16;;;;;;;65.47;48.85;;;;;;;9.58;94.74;101240.63;2565672;93;21157;-71
2022/03/16 09:24:18;;;;;;;60.67;44.13;;;;;;;9.72;94.11;101233.61;2566101;93;21144;-70
2022/03/16 09:28:20;;;;;;;61.40;47.35;;;;;;;9.85;91.85;101235.00;2565860;93;21092;-71
2022/03/16 09:32:23;;;;;;;64.22;47.93;;;;;;;10.04;92.65;101242.67;2566080;91;21041;-71
2022/03/16 09:36:25;;;;;;;65.78;49.33;;;;;;;10.26;93.40;101249.25;2566126;92;21077;-71
2022/03/16 09:40:26;;;;;;;67.35;44.42;;;;;;;10.47;93.29;101248.83;2566131;93;21084;-71
2022/03/16 09:44:30;;;;;;;70.17;46.05;;;;;;;10.65;90.01;101248.94;2566186;93;21346;-70
2022/03/16 09:48:32;;;;;;;62.33;45.00;;;;;;;10.83;91.66;101259.30;2561495;92;21145;-70
2022/03/16 09:52:34;;;;;;;60.08;43.10;;;;;;;10.98;89.10;101268.88;2601403;91;21072;-70
2022/03/16 09:56:36;;;;;;;67.05;45.40;;;;;;;11.14;88.13;101269.17;2601808;91;21045;-71
2022/03/16 10:00:38;;;;;;;62.38;45.12;;;;;;;11.29;87.31;101265.92;2601707;91;21118;-70
2022/03/16 10:04:41;;;;;;;59.03;42.45;;;;;;;11.41;84.83;101269.08;2601829;91;21117;-70
2022/03/16 10:13:13;;;;;;;55.90;42.27;;;;;;;11.62;84.81;101266.36;2601811;91;21113;-70
2022/03/16 10:21:24;;;;;;;53.50;40.78;;;;;;;11.96;80.39;101268.78;2602112;90;21064;-70
2022/03/16 10:25:30;;;;;;;64.85;42.80;;;;;;;12.04;78.55;101270.94;2602198;91;21064;-70
2022/03/16 10:29:31;;;;;;;59.13;42.80;;;;;;;12.09;77.51;101275.94;2601374;91;21073;-70
2022/03/16 10:33:53;;;;;;;60.73;42.93;;;;;;;12.11;77.01;101280.18;2602232;90;21100;-70
2022/03/16 10:38:11;;;;;;;54.13;39.88;;;;;;;12.09;77.44;101286.11;2602031;91;21124;-69
2022/03/16 10:46:38;;;;;;;54.83;38.15;;;;;;;12.21;76.25;101284.86;2602265;91;21065;-69
2022/03/16 10:50:43;;;;;;;64.35;43.45;;;;;;;12.33;72.80;101289.27;2602043;91;21109;-70
2022/03/16 10:54:48;;;;;;;51.73;38.80;;;;;;;12.49;73.16;101285.48;2602332;91;21124;-69
2022/03/16 10:58:54;;;;;;;55.25;36.40;;;;;;;12.62;69.60;101287.62;2602251;91;21040;-69
2022/03/16 11:02:58;;;;;;;52.50;38.53;;;;;;;12.75;70.28;101285.34;2602655;90;21072;-69
2022/03/16 11:07:00;;;;;;;43.63;32.70;;;;;;;13.02;69.86;101285.07;2602709;91;21087;-69
2022/03/16 11:13:28;;;;;;;42.62;30.15;;;;;;;13.33;68.65;101284.52;2602574;90;21075;-69
2022/03/16 11:15:08;;;;;;;39.55;27.82;;;;;;;13.60;66.77;101282.88;2601522;91;21041;-69
2022/03/16 11:19:11;;;;;;;39.40;33.10;;;;;;;13.61;63.52;101285.08;2602240;91;21071;-69
2022/03/16 11:27:50;;;;;;;40.05;31.12;;;;;;;13.50;65.25;101300.63;2602312;90;21056;-69
2022/03/16 11:32:09;;;;;;;40.92;29.67;;;;;;;13.64;68.80;101292.86;2602595;91;21080;-69
2022/03/16 11:36:11;;;;;;;41.60;30.75;;;;;;;13.55;63.77;101300.61;2602241;91;21084;-69
2022/03/16 11:40:23;;;;;;;40.80;32.75;;;;;;;13.46;64.44;101296.00;2602436;91;21088;-69
2022/03/16 11:44:28;;;;;;;40.73;33.05;;;;;;;13.38;65.67;101293.89;2602301;91;21013;-70
2022/03/16 11:48:37;;;;;;;39.38;30.77;;;;;;;13.29;65.85;101310.15;2602150;91;21111;-69
2022/03/16 11:53:03;;;;;;;46.90;34.88;;;;;;;13.23;64.88;101306.62;2619614;90;21041;-69
2022/03/16 11:57:04;;;;;;;45.92;35.40;;;;;;;13.19;64.87;101302.50;2640885;90;21077;-68
2022/03/16 12:01:29;;;;;;;46.13;36.93;;;;;;;13.26;67.50;101297.03;2641162;90;21093;-68
2022/03/16 12:05:54;;;;;;;32.30;25.57;;;;;;;13.49;69.39;101304.27;2641338;90;21065;-68
2022/03/16 12:10:12;;;;;;;36.80;29.57;;;;;;;13.48;61.84;101302.58;2641162;90;21085;-69
2022/03/16 12:14:18;;;;;;;37.60;29.12;;;;;;;13.55;60.30;101296.59;2641283;90;21078;-68
2022/03/16 12:18:21;;;;;;;;;;;;;;;13.63;63.44;101302.68;2643857;89;21073;-68
2022/03/16 12:22:25;;;;;;;42.53;32.08;;;;;;;13.71;62.20;101295.39;2609144;91;20129;-68
2022/03/16 12:26:29;;;;;;;48.90;35.60;;;;;;;13.80;62.93;101300.03;2641100;90;21104;-68
2022/03/16 12:30:41;;;;;;;43.17;34.60;;;;;;;13.91;62.25;101304.52;2641224;90;21073;-69
2022/03/16 12:34:44;;;;;;;49.70;38.85;;;;;;;14.02;63.35;101300.12;2641478;90;21096;-68
2022/03/16 12:38:49;;;;;;;53.42;39.75;;;;;;;13.96;64.05;101308.17;2641268;90;21052;-68
2022/03/16 12:42:53;;;;;;;64.85;42.30;;;;;;;14.06;65.26;101306.44;2641331;90;21021;-68
2022/03/16 12:47:00;;;;;;;56.25;42.35;;;;;;;14.06;65.26;101306.44;2641189;90;21095;-68
2022/03/16 12:51:03;;;;;;;50.05;38.70;;;;;;;14.24;66.38;101297.90;2624963;90;21067;-68
2022/03/16 12:55:12;;;;;;;44.93;33.92;;;;;;;14.23;62.06;101300.22;2604663;91;21666;-68
2022/03/16 12:59:22;;;;;;;63.15;44.50;;;;;;;14.21;61.23;101308.86;2604507;91;21161;-68
2022/03/16 13:03:24;;;;;;;64.92;47.73;;;;;;;14.03;64.59;101305.83;2603463;91;21112;-68
2022/03/16 13:07:27;;;;;;;46.90;30.85;;;;;;;14.03;65.10;101305.36;2604650;91;21038;-68
2022/03/16 13:11:30;;;;;;;51.83;39.80;;;;;;;13.92;61.27;101306.22;2604937;91;21117;-68
2022/03/16 13:15:32;;;;;;;48.80;37.63;;;;;;;13.84;63.10;101310.84;2604370;91;21133;-68
2022/03/16 13:19:36;;;;;;;46.92;37.10;;;;;;;13.90;64.55;101309.98;2604609;91;21093;-68
2022/03/16 13:23:38;;;;;;;42.67;31.70;;;;;;;13.83;61.05;101309.14;2604593;91;21082;-70
2022/03/16 13:27:40;;;;;;;44.55;34.10;;;;;;;13.90;60.47;101310.84;2604778;91;21058;-69
2022/03/16 13:31:43;;;;;;;47.15;33.85;;;;;;;13.93;60.65;101315.94;2604870;91;21093;-68
2022/03/16 13:35:45;;;;;;;37.65;30.12;;;;;;;13.79;61.46;101318.86;2604682;91;21054;-68
2022/03/16 13:40:09;;;;;;;36.42;29.48;;;;;;;13.48;60.62;101319.44;2604636;91;21022;-68
2022/03/16 13:44:11;;;;;;;37.83;30.40;;;;;;;13.34;60.34;101317.81;2604902;91;21047;-68
2022/03/16 13:48:16;;;;;;;40.50;30.82;;;;;;;13.24;64.99;101320.34;2605015;91;21090;-68
2022/03/16 13:52:21;;;;;;;35.65;28.12;;;;;;;13.17;61.66;101319.59;2608961;91;21595;-68
2022/03/16 13:56:23;;;;;;;30.27;23.98;;;;;;;13.16;64.21;101331.25;2626178;90;21109;-69
2022/03/16 14:00:25;;;;;;;32.25;24.43;;;;;;;13.13;62.14;101337.67;2627089;90;21077;-68
2022/03/16 14:04:30;;;;;;;30.65;24.32;;;;;;;13.13;62.13;101335.00;2625170;90;21077;-67
2022/03/16 14:08:31;;;;;;;31.20;24.13;;;;;;;13.09;60.19;101333.06;2611509;91;21106;-68
2022/03/16 14:12:38;;;;;;;32.70;25.30;;;;;;;13.17;62.01;101328.48;2623722;90;21081;-67
2022/03/16 14:16:45;;;;;;;36.65;28.07;;;;;;;13.08;58.84;101334.03;2650771;90;21069;-68
2022/03/16 14:20:56;;;;;;;37.85;26.15;;;;;;;13.01;60.12;101334.11;2630522;90;21073;-67
2022/03/16 14:24:53;;;;;;;40.45;29.65;;;;;;;12.94;60.49;101340.39;2631061;88;21045;-69
2022/03/16 14:28:55;;;;;;;40.43;29.45;;;;;;;12.89;60.81;101338.56;2620680;90;21099;-68
2022/03/16 14:33:00;;;;;;;35.48;29.15;;;;;;;12.84;60.29;101341.57;2612255;90;21094;-68
2022/03/16 14:37:02;;;;;;;33.50;27.15;;;;;;;12.78;60.45;101346.55;2651375;90;21081;-68
2022/03/16 14:41:07;;;;;;;39.90;28.10;;;;;;;12.65;59.39;101352.78;2625351;90;21054;-68
2022/03/16 14:45:09;;;;;;;40.63;28.30;;;;;;;12.63;59.02;101350.71;2625253;90;21062;-67
2022/03/16 14:49:11;;;;;;;38.35;29.18;;;;;;;12.56;60.16;101358.31;2650227;89;21028;-67
2022/03/16 14:53:12;;;;;;;37.67;31.62;;;;;;;12.50;59.41;101363.24;2629512;90;21048;-67
2022/03/16 14:57:14;;;;;;;37.90;29.98;;;;;;;12.50;59.49;101365.44;2629534;90;21029;-68
2022/03/16 15:01:15;;;;;;;49.70;34.58;;;;;;;12.49;60.28;101363.73;2629409;90;21124;-68
2022/03/16 15:05:18;;;;;;;41.88;28.60;;;;;;;12.50;60.36;101360.11;2629481;90;21096;-67
2022/03/16 15:09:19;;;;;;;37.40;30.20;;;;;;;12.51;60.01;101370.28;2604399;90;21118;-68
2022/03/16 15:13:21;;;;;;;41.08;30.15;;;;;;;12.52;60.37;101378.19;2591174;92;21150;-67
2022/03/16 15:17:23;;;;;;;42.70;29.75;;;;;;;12.52;60.26;101381.33;2591647;91;21054;-67
2022/03/16 15:21:28;;;;;;;40.43;30.45;;;;;;;12.56;61.25;101382.80;2591782;91;21114;-68
2022/03/16 15:25:28;;;;;;;41.23;28.98;;;;;;;12.56;61.38;101383.66;2591757;91;21042;-67
2022/03/16 15:29:30;;;;;;;52.13;35.38;;;;;;;12.54;59.85;101384.73;2591971;92;21070;-67
2022/03/16 15:33:35;;;;;;;48.63;34.73;;;;;;;12.55;60.06;101382.43;2591261;92;21162;-67
2022/03/16 15:37:37;;;;;;;45.63;35.20;;;;;;;12.56;61.45;101384.13;2591658;91;21035;-67
2022/03/16 15:45:54;;;;;;;49.83;38.67;;;;;;;12.52;62.38;101386.20;2591535;91;21113;-67
2022/03/16 15:49:56;;;;;;;63.48;43.78;;;;;;;12.45;62.77;101392.92;2586443;91;21132;-69
2022/03/16 15:53:57;;;;;;;57.15;42.90;;;;;;;12.43;63.24;101391.72;2584382;91;21078;-69
2022/03/16 15:57:59;;;;;;;44.58;33.63;;;;;;;12.45;64.85;101394.25;2608533;90;21101;-69
2022/03/16 16:02:02;;;;;;;47.45;34.30;;;;;;;12.38;66.01;101393.88;2647114;90;21066;-68
2022/03/16 16:06:07;;;;;;;50.30;38.75;;;;;;;12.37;65.84;101396.14;2647027;90;21579;-68
2022/03/16 16:10:12;;;;;;;54.98;39.75;;;;;;;12.35;65.67;101397.23;2647025;90;21089;-69
2022/03/16 16:14:15;;;;;;;47.38;35.28;;;;;;;12.37;66.08;101401.48;2646792;90;21086;-69
2022/03/16 16:18:16;;;;;;;51.73;38.90;;;;;;;12.46;67.23;101405.30;2646849;90;21096;-69
2022/03/16 16:22:20;;;;;;;52.27;41.63;;;;;;;12.46;66.52;101405.30;2645138;90;21066;-68
2022/03/16 16:26:21;;;;;;;52.08;36.15;;;;;;;12.43;65.91;101417.06;2644452;90;21062;-69
2022/03/16 16:30:25;;;;;;;47.48;37.17;;;;;;;12.40;65.03;101406.62;2644680;90;21126;-69
2022/03/16 16:34:30;;;;;;;50.75;39.05;;;;;;;12.40;64.81;101411.09;2644468;90;21093;-69
2022/03/16 16:38:31;;;;;;;59.83;36.53;;;;;;;12.40;64.49;101415.09;2644734;90;21118;-68
2022/03/16 16:46:48;;;;;;;51.70;38.15;;;;;;;12.31;63.84;101415.27;2644740;90;21094;-68
2022/03/16 16:50:57;;;;;;;61.90;35.10;;;;;;;12.29;63.70;101417.19;2640306;90;21083;-68
2022/03/16 16:54:59;;;;;;;47.13;36.75;;;;;;;12.27;63.74;101415.12;2605826;91;21142;-68
2022/03/16 16:59:02;;;;;;;50.00;37.33;;;;;;;12.27;64.64;101414.62;2606118;91;21105;-68
2022/03/16 17:03:05;;;;;;;44.30;34.33;;;;;;;12.25;65.41;101410.37;2606194;91;21471;-69
2022/03/16 17:07:06;;;;;;;55.48;37.53;;;;;;;12.20;65.82;101424.53;2606091;91;21138;-68
2022/03/16 17:11:08;;;;;;;50.12;36.58;;;;;;;12.12;65.53;101421.91;2606084;91;21149;-68
2022/03/16 17:15:10;;;;;;;53.20;41.55;;;;;;;12.10;65.83;101426.99;2605765;91;21117;-67
2022/03/16 17:19:11;;;;;;;49.48;38.75;;;;;;;11.98;66.00;101422.84;2605419;91;21597;-69
2022/03/16 17:23:13;;;;;;;50.45;39.23;;;;;;;11.80;65.75;101422.78;2605939;91;21504;-68
2022/03/16 17:27:16;;;;;;;54.18;39.60;;;;;;;11.59;66.17;101419.31;2618869;90;21175;-68
2022/03/16 17:31:17;;;;;;;56.55;42.23;;;;;;;11.46;66.32;101421.95;2615348;90;21093;-68
2022/03/16 17:35:22;;;;;;;48.35;39.70;;;;;;;11.34;66.02;101414.31;2605478;91;21089;-69
2022/03/16 17:39:24;;;;;;;58.55;40.05;;;;;;;11.21;66.13;101424.08;2637683;90;21093;-69
2022/03/16 17:47:41;;;;;;;52.62;38.28;;;;;;;10.99;65.82;101419.67;2646607;90;21070;-68
2022/03/16 17:51:42;;;;;;;68.30;42.00;;;;;;;10.87;65.60;101415.17;2648697;90;21141;-68
2022/03/16 18:00:01;;;;;;;54.00;40.55;;;;;;;10.73;66.28;101423.19;2651264;90;21090;-69
2022/03/16 18:04:05;;;;;;;51.77;36.98;;;;;;;10.67;66.29;101420.44;2650987;90;21062;-69
2022/03/16 18:08:11;;;;;;;61.25;43.23;;;;;;;10.56;66.58;101421.13;2650745;90;21113;-69
2022/03/16 18:16:28;;;;;;;53.52;40.63;;;;;;;10.27;66.32;101435.77;2613978;90;21088;-68
2022/03/16 18:20:30;;;;;;;63.23;44.53;;;;;;;10.08;68.24;101430.27;2604237;90;21096;-69
2022/03/16 18:24:32;;;;;;;69.82;47.60;;;;;;;9.95;69.23;101433.28;2609185;90;21061;-69
2022/03/16 18:28:34;;;;;;;62.23;46.90;;;;;;;9.80;69.23;101430.60;2643211;90;21069;-71
2022/03/16 18:32:35;;;;;;;62.60;45.20;;;;;;;9.65;69.30;101433.71;2650200;90;21109;-68
2022/03/16 18:36:37;;;;;;;69.17;47.20;;;;;;;9.49;69.37;101435.56;2650432;90;21057;-69
2022/03/16 18:40:40;;;;;;;63.02;44.77;;;;;;;9.27;68.86;101434.17;2650731;90;21077;-71
2022/03/16 18:44:42;;;;;;;73.07;49.45;;;;;;;9.02;69.14;101437.37;2651127;90;21026;-70
2022/03/16 18:48:47;;;;;;;65.55;48.92;;;;;;;8.85;69.76;101443.19;2651035;90;21601;-70
2022/03/16 18:52:52;;;;;;;85.75;55.48;;;;;;;8.66;71.09;101454.83;2646819;90;21146;-70
2022/03/16 18:56:52;;;;;;;79.47;54.50;;;;;;;8.53;71.47;101461.73;2644201;90;21109;-70
2022/03/16 19:00:54;;;;;;;70.95;47.15;;;;;;;8.44;71.71;101478.96;2644680;90;21403;-69
2022/03/16 19:04:55;;;;;;;74.27;50.83;;;;;;;8.35;72.41;101480.31;2589794;91;21074;-69
2022/03/16 19:08:57;;;;;;;79.62;53.08;;;;;;;8.25;72.72;101483.05;2604887;91;21050;-72